createdAt,value
2022-08-03T00:02:23.930Z,3.40
2022-08-03T00:07:29.136Z,3.10
2022-08-03T00:12:32.986Z,3.10
2022-08-03T00:17:53.493Z,3.10
2022-08-03T00:22:56.305Z,2.95
2022-08-03T00:27:58.831Z,3.28
2022-08-03T00:33:02.210Z,3.28
2022-08-03T00:38:08.844Z,3.70
2022-08-03T00:43:12.062Z,3.33
2022-08-03T00:48:29.404Z,3.35
2022-08-03T00:53:37.304Z,2.83
2022-08-03T00:58:39.871Z,2.97
2022-08-03T01:03:42.635Z,2.90
2022-08-03T01:09:12.988Z,3.47
2022-08-03T01:14:52.622Z,3.67
2022-08-03T01:20:03.203Z,3.55
2022-08-03T01:25:33.006Z,3.00
2022-08-03T01:30:38.495Z,2.83
2022-08-03T01:36:03.912Z,3.03
2022-08-03T01:41:11.840Z,3.40
2022-08-03T01:46:16.559Z,3.38
2022-08-03T01:51:20.725Z,3.35
2022-08-03T01:56:25.520Z,6.10
2022-08-03T02:02:28.487Z,3.00
2022-08-03T02:07:01.256Z,3.40
2022-08-03T02:12:09.608Z,3.40
2022-08-03T02:17:14.311Z,3.50
2022-08-03T02:22:17.218Z,2.75
2022-08-03T02:27:24.960Z,3.08
2022-08-03T02:32:35.094Z,3.13
2022-08-03T02:37:49.796Z,3.25
2022-08-03T02:42:56.891Z,2.88
2022-08-03T02:48:05.607Z,3.03
2022-08-03T02:58:13.918Z,3.28
2022-08-03T03:03:16.498Z,3.00
2022-08-03T03:08:26.881Z,3.00
2022-08-03T03:13:31.946Z,2.80
2022-08-03T03:18:35.764Z,2.70
2022-08-03T03:23:41.267Z,2.70
2022-08-03T03:28:44.846Z,2.92
2022-08-03T03:33:48.478Z,3.15
2022-08-03T03:38:51.127Z,2.78
2022-08-03T03:43:59.578Z,2.97
2022-08-03T03:49:02.370Z,3.58
2022-08-03T03:54:08.741Z,4.10
2022-08-03T03:59:11.209Z,3.70
2022-08-03T04:04:32.289Z,3.85
2022-08-03T04:09:55.649Z,3.40
2022-08-03T04:15:03.584Z,4.25
2022-08-03T04:20:07.408Z,3.55
2022-08-03T04:25:14.733Z,3.53
2022-08-03T04:30:17.392Z,4.20
2022-08-03T04:35:20.453Z,5.20
2022-08-03T04:40:36.380Z,5.53
2022-08-03T04:45:40.100Z,5.43
2022-08-03T04:50:45.737Z,4.15
2022-08-03T04:55:48.179Z,4.45
2022-08-03T05:00:52.616Z,4.38
2022-08-03T05:06:07.973Z,3.97
2022-08-03T05:11:12.582Z,4.07
2022-08-03T05:16:15.638Z,4.07
2022-08-03T05:21:18.035Z,4.82
2022-08-03T05:26:20.776Z,4.22
2022-08-03T05:31:23.142Z,3.83
2022-08-03T05:36:25.495Z,4.53
2022-08-03T05:41:36.979Z,4.78
2022-08-03T05:46:39.875Z,4.18
2022-08-03T05:51:42.221Z,4.47
2022-08-03T05:56:44.623Z,3.13
2022-08-03T06:01:47.270Z,2.83
2022-08-03T06:06:51.376Z,2.80
2022-08-03T06:11:53.734Z,2.65
2022-08-03T06:16:56.205Z,2.53
2022-08-03T06:21:58.908Z,3.08
2022-08-03T06:27:04.860Z,2.83
2022-08-03T06:32:07.387Z,2.53
2022-08-03T06:37:09.861Z,1.95
2022-08-03T06:42:12.281Z,2.58
2022-08-03T06:47:14.643Z,2.05
2022-08-03T06:52:37.267Z,2.30
2022-08-03T06:57:39.411Z,2.30
2022-08-03T07:02:42.173Z,1.80
2022-08-03T07:07:45.093Z,1.95
2022-08-03T07:12:56.149Z,2.10
2022-08-03T07:17:59.534Z,2.17
2022-08-03T07:23:03.629Z,1.95
2022-08-03T07:28:06.013Z,1.92
2022-08-03T07:33:08.419Z,1.80
2022-08-03T07:38:10.795Z,2.15
2022-08-03T07:43:13.287Z,2.05
2022-08-03T07:48:15.954Z,2.83
2022-08-03T07:53:18.397Z,2.10
2022-08-03T07:58:24.190Z,1.80
2022-08-03T08:03:27.368Z,1.90
2022-08-03T08:08:29.852Z,1.77
2022-08-03T08:13:32.647Z,2.10
2022-08-03T08:18:35.146Z,1.90
2022-08-03T08:23:43.664Z,1.52
2022-08-03T08:28:47.496Z,2.20
2022-08-03T08:34:05.292Z,1.92
2022-08-03T08:39:08.351Z,1.70
2022-08-03T08:44:10.811Z,1.85
2022-08-03T08:49:18.070Z,1.50
2022-08-03T08:54:23.420Z,1.58
2022-08-03T08:59:47.777Z,1.80
2022-08-03T09:04:51.215Z,1.67
2022-08-03T09:10:05.957Z,1.77
2022-08-03T09:15:31.913Z,1.80
2022-08-03T09:20:37.408Z,1.58
2022-08-03T09:25:44.781Z,2.00
2022-08-03T09:31:00.890Z,1.58
2022-08-03T09:36:03.438Z,1.70
2022-08-03T09:41:19.543Z,1.85
2022-08-03T09:46:21.901Z,1.90
2022-08-03T09:51:32.810Z,1.80
2022-08-03T09:56:48.782Z,1.80
2022-08-03T10:01:51.449Z,2.17
2022-08-03T10:07:11.226Z,1.58
2022-08-03T10:12:14.608Z,1.80
2022-08-03T10:17:17.267Z,1.83
2022-08-03T10:22:24.254Z,1.60
2022-08-03T10:27:32.997Z,1.80
2022-08-03T10:32:42.420Z,1.70
2022-08-03T10:37:57.326Z,1.48
2022-08-03T10:43:10.600Z,2.03
2022-08-03T10:48:13.800Z,1.70
2022-08-03T10:53:18.631Z,1.45
2022-08-03T10:58:53.226Z,1.63
2022-08-03T11:03:59.632Z,1.60
2022-08-03T11:09:12.301Z,1.38
2022-08-03T11:14:22.302Z,1.20
2022-08-03T11:19:57.466Z,1.02
2022-08-03T11:25:00.929Z,1.58
2022-08-03T11:30:06.361Z,1.50
2022-08-03T11:35:14.070Z,1.27
2022-08-03T11:40:35.381Z,1.30
2022-08-03T11:45:38.716Z,1.20
2022-08-03T11:50:41.580Z,1.20
2022-08-03T11:55:47.563Z,1.65
2022-08-03T12:00:51.659Z,1.23
2022-08-03T12:06:00.884Z,1.63
2022-08-03T12:11:08.140Z,1.10
2022-08-03T12:21:13.592Z,1.08
2022-08-03T12:26:16.081Z,1.10
2022-08-03T12:31:18.596Z,1.33
2022-08-03T12:36:22.361Z,1.20
2022-08-03T12:41:43.183Z,1.35
2022-08-03T12:46:48.053Z,1.25
2022-08-03T12:51:50.613Z,1.35
2022-08-03T12:57:03.618Z,1.30
2022-08-03T13:02:09.618Z,1.13
2022-08-03T13:07:18.055Z,1.10
2022-08-03T13:12:28.112Z,1.20
2022-08-03T13:17:30.486Z,1.35
2022-08-03T13:22:35.784Z,1.23
2022-08-03T13:28:04.197Z,1.10
2022-08-03T13:33:01.027Z,1.10
2022-08-03T13:38:03.567Z,1.60
2022-08-03T13:43:06.031Z,1.20
2022-08-03T13:48:08.601Z,1.10
2022-08-03T13:53:10.990Z,0.90
2022-08-03T13:58:14.138Z,1.08
2022-08-03T14:03:16.879Z,1.40
2022-08-03T14:08:19.253Z,1.25
2022-08-03T14:13:21.752Z,1.00
2022-08-03T14:18:29.207Z,1.45
2022-08-03T14:23:38.359Z,1.33
2022-08-03T14:28:41.781Z,1.15
2022-08-03T14:33:44.220Z,1.23
2022-08-03T14:38:46.864Z,1.30
2022-08-03T14:44:01.271Z,1.08
2022-08-03T14:50:30.779Z,1.00
2022-08-03T14:54:31.471Z,1.30
2022-08-03T14:59:55.875Z,1.20
2022-08-03T15:04:56.601Z,1.20
2022-08-03T15:10:00.174Z,1.15
2022-08-03T15:15:05.140Z,1.30
2022-08-03T15:20:28.828Z,1.13
2022-08-03T15:26:30.330Z,1.33
2022-08-03T15:31:02.951Z,1.17
2022-08-03T15:36:05.780Z,1.05
2022-08-03T15:41:14.482Z,1.20
2022-08-03T15:46:29.218Z,1.30
2022-08-03T15:51:32.250Z,1.63
2022-08-03T15:56:34.626Z,1.75
2022-08-03T16:01:37.118Z,2.05
2022-08-03T16:06:39.524Z,1.35
2022-08-03T16:11:44.583Z,1.42
2022-08-03T16:16:46.980Z,2.90
2022-08-03T16:21:50.181Z,2.38
2022-08-03T16:26:52.865Z,1.50
2022-08-03T16:31:55.262Z,1.83
2022-08-03T16:37:04.838Z,1.00
2022-08-03T16:42:19.191Z,1.55
2022-08-03T16:47:23.387Z,1.80
2022-08-03T16:52:27.391Z,1.88
2022-08-03T16:57:59.384Z,1.50
2022-08-03T17:02:55.331Z,1.38
2022-08-03T17:08:10.561Z,1.55
2022-08-03T17:13:22.492Z,1.70
2022-08-03T17:18:27.255Z,1.77
2022-08-03T17:29:13.037Z,2.30
2022-08-03T17:34:16.048Z,3.20
2022-08-03T17:39:27.029Z,3.85
2022-08-03T17:44:46.312Z,2.10
2022-08-03T17:49:50.186Z,3.30
2022-08-03T17:55:54.957Z,3.30
2022-08-03T18:00:43.403Z,2.75
2022-08-03T18:11:23.961Z,2.50
2022-08-03T18:16:40.072Z,2.33
2022-08-03T18:22:03.548Z,2.45
2022-08-03T18:27:08.929Z,2.30
2022-08-03T18:32:16.999Z,1.90
2022-08-03T18:37:25.208Z,2.08
2022-08-03T18:42:28.377Z,2.42
2022-08-03T18:47:50.727Z,2.83
2022-08-03T18:54:03.394Z,2.22
2022-08-03T18:59:16.938Z,2.20
2022-08-03T19:04:36.663Z,2.30
2022-08-03T19:09:52.738Z,2.95
2022-08-03T19:15:00.930Z,3.30
2022-08-03T19:20:09.596Z,2.58
2022-08-03T19:25:12.394Z,2.78
2022-08-03T19:30:39.028Z,2.75
2022-08-03T19:35:51.293Z,3.15
2022-08-03T19:41:02.389Z,3.53
2022-08-03T19:46:14.197Z,3.08
2022-08-03T19:51:17.618Z,2.78
2022-08-03T19:56:30.198Z,3.58
2022-08-03T20:01:32.606Z,3.30
2022-08-03T20:06:57.582Z,3.45
2022-08-03T20:12:00.628Z,3.95
2022-08-03T20:17:03.220Z,4.28
2022-08-03T20:22:14.487Z,4.20
2022-08-03T20:27:21.164Z,3.97
2022-08-03T20:32:36.259Z,4.20
2022-08-03T20:37:41.426Z,4.97
2022-08-03T20:42:44.228Z,5.35
2022-08-03T20:47:50.909Z,4.32
2022-08-03T20:52:53.969Z,4.20
2022-08-03T20:57:58.210Z,3.78
2022-08-03T21:03:02.653Z,3.97
2022-08-03T21:08:08.051Z,3.78
2022-08-03T21:13:04.092Z,3.90
2022-08-03T21:13:25.213Z,3.65
2022-08-03T21:18:28.317Z,3.33
2022-08-03T21:23:48.191Z,3.05
2022-08-03T21:28:55.877Z,2.85
2022-08-03T21:34:03.790Z,3.47
2022-08-03T21:39:09.028Z,3.30
2022-08-03T21:44:11.808Z,3.10
2022-08-03T21:50:04.203Z,3.42
2022-08-03T21:54:41.599Z,3.08
2022-08-03T21:59:51.921Z,3.10
2022-08-03T22:04:56.369Z,3.53
2022-08-03T22:10:02.349Z,3.30
2022-08-03T22:15:10.432Z,3.35
2022-08-03T22:20:17.269Z,3.08
2022-08-03T22:25:24.190Z,3.22
2022-08-03T22:30:28.696Z,3.65
2022-08-03T22:35:32.795Z,3.20
2022-08-03T22:40:51.460Z,2.97
2022-08-03T22:46:09.954Z,2.63
2022-08-03T22:51:16.309Z,3.50
2022-08-03T22:56:19.832Z,3.15
2022-08-03T23:01:26.805Z,2.97
2022-08-03T23:06:35.013Z,3.58
2022-08-03T23:11:45.598Z,3.05
2022-08-03T23:16:48.573Z,2.75
2022-08-03T23:21:53.835Z,3.90
2022-08-03T23:27:05.385Z,3.08
2022-08-03T23:32:11.994Z,3.20
2022-08-03T23:37:16.120Z,3.05
2022-08-03T23:42:22.360Z,2.92
2022-08-03T23:47:47.092Z,2.90
2022-08-03T23:53:08.860Z,2.80
2022-08-03T23:58:41.773Z,2.80
